Time;durP1;ratioP1;P1;durP2;ratioP2;P2;SDS_P1;SDS_P2;PMS_P1;PMS_P2;Temp;Humidity;BMP_temperature;BMP_pressure;BME280_temperature;BME280_humidity;BME280_pressure;Samples;Min_cycle;Max_cycle;Signal;HPM_P1;HPM_P2
2022/05/24 00:00:28;;;;;;;9.43;4.00;;;;;;;15.40;100.00;95142.91;5029761;28;20037;-77
2022/05/24 00:02:54;;;;;;;9.02;4.00;;;;;;;15.38;100.00;95131.72;5020768;28;20132;-77
2022/05/24 00:05:21;;;;;;;9.55;3.65;;;;;;;15.45;100.00;95129.81;5025768;28;20120;-77
2022/05/24 00:07:47;;;;;;;9.30;4.13;;;;;;;15.40;100.00;95134.97;5024100;28;20037;-77
2022/05/24 00:10:18;;;;;;;12.27;4.05;;;;;;;15.40;100.00;95134.97;5004462;28;20034;-77
2022/05/24 00:12:43;;;;;;;8.38;4.13;;;;;;;15.44;100.00;95130.84;5029890;28;20116;-78
2022/05/24 00:15:27;;;;;;;7.47;3.63;;;;;;;15.47;100.00;95131.22;5022001;28;20116;-77
2022/05/24 00:18:06;;;;;;;9.90;3.95;;;;;;;15.42;100.00;95130.25;5036205;28;20064;-77
2022/05/24 00:20:42;;;;;;;8.13;4.50;;;;;;;15.39;100.00;95125.38;5020429;28;20029;-76
2022/05/24 00:23:08;;;;;;;11.55;4.43;;;;;;;15.30;100.00;95125.66;5032152;28;20121;-77
2022/05/24 00:25:36;;;;;;;11.20;4.03;;;;;;;15.25;100.00;95137.91;5028852;28;20105;-77
2022/05/24 00:28:04;;;;;;;10.82;4.15;;;;;;;15.30;100.00;95140.75;5030612;28;20044;-78
2022/05/24 00:30:29;;;;;;;8.75;4.18;;;;;;;15.26;100.00;95140.38;5031614;28;20375;-77
2022/05/24 00:32:57;;;;;;;9.48;4.40;;;;;;;15.21;100.00;95134.09;5028469;28;20120;-78
2022/05/24 00:35:23;;;;;;;7.72;4.07;;;;;;;15.20;100.00;95143.06;5032837;28;20106;-77
2022/05/24 00:37:49;;;;;;;8.80;3.80;;;;;;;15.20;100.00;95141.22;5009391;28;20191;-78
2022/05/24 00:40:35;;;;;;;9.45;3.38;;;;;;;15.21;100.00;95149.97;5041285;28;20029;-77
2022/05/24 00:43:07;;;;;;;6.80;3.67;;;;;;;15.20;100.00;95154.47;5022686;28;20049;-77
2022/05/24 00:45:48;;;;;;;11.38;4.50;;;;;;;15.23;100.00;95151.38;5027728;28;20383;-77
2022/05/24 00:48:37;;;;;;;9.05;4.07;;;;;;;15.22;100.00;95146.28;5026621;28;20076;-78
2022/05/24 00:51:06;;;;;;;8.05;3.88;;;;;;;15.25;100.00;95149.31;5024524;28;20033;-78
2022/05/24 00:53:41;;;;;;;9.57;4.72;;;;;;;15.31;100.00;95143.16;5029790;28;20060;-77
2022/05/24 00:56:07;;;;;;;10.02;3.28;;;;;;;15.32;100.00;95141.31;5018431;28;20048;-77
2022/05/24 00:58:48;;;;;;;7.43;3.72;;;;;;;15.29;100.00;95139.94;5006432;28;20033;-77
2022/05/24 01:01:29;;;;;;;8.43;3.30;;;;;;;15.34;100.00;95139.28;5001923;28;20044;-78
2022/05/24 01:03:55;;;;;;;7.63;3.10;;;;;;;15.31;100.00;95145.00;5028040;28;20026;-79
2022/05/24 01:06:21;;;;;;;9.07;4.68;;;;;;;15.27;100.00;95144.63;5017003;28;20106;-77
2022/05/24 01:08:47;;;;;;;6.88;3.20;;;;;;;15.30;100.00;95146.03;5030688;28;20564;-78
2022/05/24 01:11:16;;;;;;;7.22;3.63;;;;;;;15.27;100.00;95165.81;5023205;28;20084;-77
2022/05/24 01:13:43;;;;;;;7.60;3.70;;;;;;;15.20;100.00;95180.13;5037411;28;20382;-78
2022/05/24 01:16:10;;;;;;;9.52;5.00;;;;;;;15.15;100.00;95191.34;5022872;28;20034;-78
2022/05/24 01:18:36;;;;;;;8.10;4.53;;;;;;;14.92;100.00;95194.53;5022157;28;20045;-77
2022/05/24 01:21:06;;;;;;;6.28;2.50;;;;;;;14.82;100.00;95196.81;5023828;28;20052;-77
2022/05/24 01:23:51;;;;;;;7.25;2.30;;;;;;;14.64;100.00;95197.53;5020082;28;20681;-77
2022/05/24 01:26:25;;;;;;;6.40;1.83;;;;;;;14.53;100.00;95201.63;5034596;28;20108;-78
2022/05/24 01:28:57;;;;;;;5.00;2.40;;;;;;;14.34;100.00;95200.63;5026156;28;20078;-77
2022/05/24 01:31:25;;;;;;;4.03;2.03;;;;;;;14.30;100.00;95196.78;5027947;28;20088;-78
2022/05/24 01:36:39;;;;;;;6.93;2.53;;;;;;;14.18;100.00;95206.38;5027175;28;20120;-78
2022/05/24 01:39:09;;;;;;;3.85;1.77;;;;;;;14.20;100.00;95200.91;5028144;28;20095;-78
2022/05/24 01:41:47;;;;;;;4.85;1.98;;;;;;;14.25;100.00;95209.84;5033526;28;20107;-78
2022/05/24 01:44:18;;;;;;;3.83;1.90;;;;;;;14.21;100.00;95200.66;5016261;28;20052;-78
2022/05/24 01:46:46;;;;;;;5.23;2.20;;;;;;;14.14;100.00;95210.44;5035791;28;20434;-78
2022/05/24 01:49:34;;;;;;;5.53;2.30;;;;;;;14.13;100.00;95204.34;5015839;28;20080;-79
2022/05/24 01:52:05;;;;;;;3.22;2.20;;;;;;;14.12;100.00;95201.94;5023021;28;20060;-79
2022/05/24 01:54:38;;;;;;;3.63;2.30;;;;;;;14.21;100.00;95211.25;5026720;28;20024;-79
2022/05/24 01:57:13;;;;;;;3.55;2.15;;;;;;;14.19;100.00;95213.31;5014287;28;20175;-78
2022/05/24 01:59:44;;;;;;;3.70;1.83;;;;;;;14.19;100.00;95210.66;5030598;28;20041;-78
2022/05/24 02:02:10;;;;;;;6.35;2.20;;;;;;;14.19;100.00;95213.31;5013679;28;20033;-78
2022/05/24 02:04:36;;;;;;;2.92;1.70;;;;;;;14.21;100.00;95213.88;5035112;28;20053;-78
2022/05/24 02:07:23;;;;;;;4.70;2.33;;;;;;;14.10;100.00;95206.59;5021894;28;20076;-77
2022/05/24 02:09:52;;;;;;;4.28;2.15;;;;;;;14.19;100.00;95197.44;5037553;28;20253;-78
2022/05/24 02:12:33;;;;;;;3.70;2.22;;;;;;;14.17;100.00;95204.75;5017864;28;20038;-78
2022/05/24 02:15:07;;;;;;;4.93;2.33;;;;;;;14.14;100.00;95202.53;5011508;28;20087;-78
2022/05/24 02:17:41;;;;;;;2.93;1.67;;;;;;;14.07;100.00;95199.88;5019273;28;20041;-78
2022/05/24 02:20:11;;;;;;;2.97;2.15;;;;;;;14.12;100.00;95204.56;5029489;28;20045;-78
2022/05/24 02:22:38;;;;;;;3.60;2.10;;;;;;;14.10;100.00;95209.25;5028475;28;20043;-78
2022/05/24 02:25:40;;;;;;;4.13;2.10;;;;;;;14.04;100.00;95204.78;5033719;28;20051;-78
2022/05/24 02:28:09;;;;;;;3.58;2.40;;;;;;;14.12;100.00;95201.94;5030570;28;20562;-77
2022/05/24 02:30:39;;;;;;;2.40;1.95;;;;;;;14.09;100.00;95197.06;5031123;28;20733;-78
2022/05/24 02:33:05;;;;;;;5.20;2.13;;;;;;;13.98;100.00;95182.63;5027955;28;20045;-78
2022/05/24 02:35:31;;;;;;;3.13;1.80;;;;;;;14.05;100.00;95177.31;5024468;28;20125;-79
2022/05/24 02:37:57;;;;;;;3.13;1.90;;;;;;;14.02;100.00;95190.97;5021100;28;20148;-78
2022/05/24 02:43:07;;;;;;;4.40;2.40;;;;;;;13.96;100.00;95175.94;5015647;28;20124;-78
2022/05/24 02:45:33;;;;;;;3.87;2.40;;;;;;;13.90;100.00;95172.28;5025579;28;20029;-78
2022/05/24 02:47:59;;;;;;;4.60;2.10;;;;;;;13.89;100.00;95173.28;5023971;28;20025;-78
2022/05/24 02:50:25;;;;;;;3.33;2.20;;;;;;;13.84;100.00;95179.19;5032613;28;20141;-77
2022/05/24 02:52:51;;;;;;;4.77;2.30;;;;;;;13.79;100.00;95176.34;5023376;28;20089;-78
2022/05/24 02:55:19;;;;;;;5.20;2.77;;;;;;;13.83;100.00;95177.56;5024729;28;20041;-78
2022/05/24 02:57:45;;;;;;;4.43;2.57;;;;;;;13.82;100.00;95178.59;5020772;28;20121;-78
2022/05/24 03:00:15;;;;;;;4.20;2.37;;;;;;;13.85;100.00;95183.47;5007383;28;20455;-78
2022/05/24 03:02:41;;;;;;;3.30;2.43;;;;;;;13.90;100.00;95188.94;5037772;28;20082;-78
2022/05/24 03:05:10;;;;;;;6.47;2.67;;;;;;;13.88;100.00;95193.63;5023218;28;20030;-78
2022/05/24 03:10:20;;;;;;;5.00;2.87;;;;;;;13.88;100.00;95191.00;5027943;28;20053;-78
2022/05/24 03:15:30;;;;;;;5.22;3.38;;;;;;;13.93;100.00;95187.72;5024782;28;20041;-78
2022/05/24 03:17:56;;;;;;;5.88;3.00;;;;;;;13.92;100.00;95188.75;5031654;28;20036;-78
2022/05/24 03:20:21;;;;;;;7.37;4.03;;;;;;;13.97;100.00;95188.13;5009935;28;20538;-78
2022/05/24 03:22:47;;;;;;;4.55;3.17;;;;;;;13.96;100.00;95186.50;5028719;28;20526;-78
2022/05/24 03:25:16;;;;;;;5.17;3.37;;;;;;;13.90;100.00;95193.41;5020583;28;20021;-78
2022/05/24 03:27:42;;;;;;;4.60;3.13;;;;;;;13.98;100.00;95187.09;5019948;28;20037;-78
2022/05/24 03:30:08;;;;;;;5.32;3.15;;;;;;;13.97;100.00;95180.19;5025550;28;20472;-78
2022/05/24 03:32:33;;;;;;;6.68;3.20;;;;;;;13.88;100.00;95190.16;5025044;28;20034;-78
2022/05/24 03:35:04;;;;;;;4.35;2.60;;;;;;;13.95;100.00;95190.13;5013698;28;20081;-78
2022/05/24 03:37:30;;;;;;;5.10;3.40;;;;;;;13.94;100.00;95186.69;5021881;28;20258;-78
2022/05/24 03:39:55;;;;;;;5.63;2.85;;;;;;;13.95;100.00;95179.56;5034689;28;20124;-79
2022/05/24 03:42:21;;;;;;;5.70;3.28;;;;;;;13.93;100.00;95176.34;5019236;28;20129;-78
2022/05/24 03:44:47;;;;;;;4.13;2.73;;;;;;;13.89;100.00;95179.38;5029402;28;20037;-78
2022/05/24 03:47:13;;;;;;;6.80;3.50;;;;;;;13.94;100.00;95180.59;5003739;28;20026;-78
2022/05/24 03:49:38;;;;;;;6.43;3.27;;;;;;;13.94;100.00;95185.88;5028335;28;20047;-79
2022/05/24 03:52:04;;;;;;;4.77;3.17;;;;;;;13.89;100.00;95182.03;5026772;28;20044;-78
2022/05/24 03:54:30;;;;;;;5.32;3.38;;;;;;;13.91;100.00;95182.63;5024459;28;20767;-78
2022/05/24 03:59:43;;;;;;;4.40;3.33;;;;;;;13.93;100.00;95179.78;5021677;28;20458;-78
2022/05/24 04:02:09;;;;;;;4.80;3.20;;;;;;;13.90;100.00;95190.78;5000637;28;20048;-78
2022/05/24 04:04:35;;;;;;;5.57;3.50;;;;;;;14.01;100.00;95206.00;5018945;28;20025;-78
2022/05/24 04:07:01;;;;;;;5.70;3.77;;;;;;;14.01;100.00;95199.91;5011450;28;20038;-78
2022/05/24 04:09:27;;;;;;;5.53;3.45;;;;;;;14.06;100.00;95202.75;5029367;28;20076;-78
2022/05/24 04:11:54;;;;;;;7.18;3.53;;;;;;;14.11;100.00;95200.28;5033480;28;20449;-78
2022/05/24 04:14:22;;;;;;;5.88;3.67;;;;;;;14.08;100.00;95204.19;5018717;28;20045;-78
2022/05/24 04:16:48;;;;;;;5.93;3.90;;;;;;;14.10;100.00;95206.59;5032365;28;20026;-79
2022/05/24 04:19:14;;;;;;;6.80;3.83;;;;;;;14.12;100.00;95209.88;5018888;28;20483;-79
2022/05/24 04:21:40;;;;;;;4.83;3.20;;;;;;;14.07;100.00;95207.00;5024457;28;20116;-78
2022/05/24 04:24:07;;;;;;;5.33;3.43;;;;;;;14.08;100.00;95220.03;5021907;28;20018;-78
2022/05/24 04:26:32;;;;;;;8.80;3.90;;;;;;;14.13;100.00;95224.69;5027191;28;20402;-78
2022/05/24 04:28:58;;;;;;;7.65;3.75;;;;;;;14.10;100.00;95231.19;5022052;28;20042;-78
2022/05/24 04:31:24;;;;;;;6.75;4.05;;;;;;;14.14;100.00;95234.25;5029586;28;20126;-78
2022/05/24 04:33:50;;;;;;;7.07;3.88;;;;;;;14.10;100.00;95233.84;5017477;28;20044;-78
2022/05/24 04:36:16;;;;;;;7.00;3.85;;;;;;;14.11;100.00;95237.31;5010388;28;20116;-78
2022/05/24 04:38:42;;;;;;;6.43;3.63;;;;;;;14.15;100.00;95243.78;5038113;28;20037;-78
2022/05/24 04:43:53;;;;;;;6.25;3.30;;;;;;;14.21;100.00;95240.34;5027159;28;20090;-77
2022/05/24 04:46:19;;;;;;;5.13;3.25;;;;;;;14.23;100.00;95234.84;5026558;28;20518;-78
2022/05/24 04:48:44;;;;;;;5.72;3.83;;;;;;;14.27;100.00;95234.22;5022152;28;20062;-78
2022/05/24 04:51:11;;;;;;;6.18;3.35;;;;;;;14.33;100.00;95236.06;5014032;28;20519;-78
2022/05/24 04:53:36;;;;;;;5.35;3.67;;;;;;;14.35;100.00;95234.03;5022686;28;20037;-78
2022/05/24 04:56:04;;;;;;;5.47;4.43;;;;;;;14.32;100.00;95215.91;5017372;28;20025;-78
2022/05/24 04:58:29;;;;;;;6.97;4.07;;;;;;;14.25;100.00;95191.31;5022721;28;20471;-80
2022/05/24 05:00:55;;;;;;;5.85;3.60;;;;;;;14.30;100.00;95185.41;5019094;28;20075;-78
2022/05/24 05:03:22;;;;;;;5.97;3.83;;;;;;;14.35;100.00;95204.94;5025199;28;20089;-79
2022/05/24 05:05:51;;;;;;;7.43;3.90;;;;;;;14.36;100.00;95226.91;5014230;28;20384;-77
2022/05/24 05:08:17;;;;;;;5.53;3.75;;;;;;;14.36;100.00;95229.53;5028530;28;20048;-77
2022/05/24 05:10:43;;;;;;;5.60;3.85;;;;;;;14.32;100.00;95245.00;5027201;28;20029;-77
2022/05/24 05:13:10;;;;;;;6.25;4.43;;;;;;;14.41;100.00;95242.13;5031337;28;20038;-78
2022/05/24 05:15:37;;;;;;;12.65;3.60;;;;;;;14.44;100.00;95237.25;5017111;28;20418;-77
2022/05/24 05:18:03;;;;;;;6.50;3.42;;;;;;;14.56;100.00;95245.41;5020098;28;20033;-77
2022/05/24 05:20:31;;;;;;;5.70;3.83;;;;;;;14.56;100.00;95256.78;5011901;28;20029;-77
2022/05/24 05:22:56;;;;;;;5.18;3.30;;;;;;;14.59;100.00;95256.38;5022653;28;20041;-78
2022/05/24 05:25:22;;;;;;;5.70;3.17;;;;;;;14.60;100.00;95260.63;5030839;28;20028;-78
2022/05/24 05:27:49;;;;;;;5.57;3.22;;;;;;;14.70;100.00;95249.63;5027608;28;20038;-78
2022/05/24 05:32:59;;;;;;;4.80;2.97;;;;;;;14.72;100.00;95246.75;5017800;28;20038;-77
2022/05/24 05:35:24;;;;;;;6.10;3.30;;;;;;;14.86;100.00;95240.41;5025048;28;20031;-78
2022/05/24 05:37:50;;;;;;;5.13;3.15;;;;;;;14.84;100.00;95256.47;5032225;28;20037;-77
2022/05/24 05:40:16;;;;;;;4.50;3.03;;;;;;;14.90;100.00;95256.69;5030452;28;20056;-77
2022/05/24 05:42:43;;;;;;;7.05;4.85;;;;;;;14.91;100.00;95245.88;5014771;28;20045;-77
2022/05/24 05:45:11;;;;;;;6.72;3.85;;;;;;;14.98;100.00;95249.28;5027557;28;20026;-78
2022/05/24 05:47:38;;;;;;;10.45;6.13;;;;;;;14.93;100.00;95261.56;5019015;28;20047;-79
2022/05/24 05:50:04;;;;;;;8.75;5.03;;;;;;;14.85;100.00;95258.13;5020089;28;20049;-77
2022/05/24 05:52:30;;;;;;;6.10;3.22;;;;;;;14.82;100.00;95263.84;5028922;28;20029;-77
2022/05/24 05:54:56;;;;;;;5.30;3.47;;;;;;;14.89;100.00;95270.91;5024999;28;20395;-77
2022/05/24 05:57:22;;;;;;;5.80;3.90;;;;;;;14.92;100.00;95275.78;5010221;28;20105;-77
2022/05/24 05:59:52;;;;;;;5.55;3.45;;;;;;;14.82;100.00;95260.34;5022464;28;20076;-77
2022/05/24 06:02:18;;;;;;;5.78;3.53;;;;;;;14.90;100.00;95256.69;5027356;28;20423;-76
2022/05/24 06:04:44;;;;;;;5.88;3.72;;;;;;;14.83;100.00;95262.81;5021373;28;20113;-76
2022/05/24 06:07:12;;;;;;;5.28;3.38;;;;;;;14.80;100.00;95273.81;5024226;28;20052;-79
2022/05/24 06:09:38;;;;;;;4.72;3.30;;;;;;;14.85;100.00;95276.66;5030375;28;20038;-78
2022/05/24 06:12:04;;;;;;;6.22;3.67;;;;;;;14.75;100.00;95288.69;5024024;28;20033;-77
2022/05/24 06:14:33;;;;;;;6.22;3.08;;;;;;;14.68;100.00;95293.19;5023734;28;20028;-79
2022/05/24 06:16:59;;;;;;;9.82;4.00;;;;;;;14.77;100.00;95268.94;5034876;28;20334;-77
2022/05/24 06:19:24;;;;;;;6.47;3.25;;;;;;;14.76;100.00;95291.13;5010955;28;20394;-78
2022/05/24 06:21:50;;;;;;;8.48;3.88;;;;;;;14.82;100.00;95290.31;5030032;28;20089;-80
2022/05/24 06:24:16;;;;;;;4.22;2.90;;;;;;;14.71;100.00;95290.94;5025029;28;20103;-78
2022/05/24 06:26:43;;;;;;;3.72;2.88;;;;;;;14.74;100.00;95285.22;5020913;28;20116;-79
2022/05/24 06:29:08;;;;;;;6.03;3.55;;;;;;;14.71;100.00;95280.34;5033444;28;20029;-78
2022/05/24 06:31:34;;;;;;;5.78;3.17;;;;;;;14.79;100.00;95281.97;5011466;28;20494;-80
2022/05/24 06:34:01;;;;;;;4.35;3.22;;;;;;;14.88;100.00;95279.88;5015828;28;20030;-78
2022/05/24 06:36:26;;;;;;;4.88;2.92;;;;;;;14.96;100.00;95288.41;5021911;28;20040;-78
2022/05/24 06:38:52;;;;;;;5.30;3.00;;;;;;;15.06;100.00;95287.97;5027941;28;20494;-80
2022/05/24 06:41:18;;;;;;;5.15;2.78;;;;;;;15.15;100.00;95297.28;5026280;28;20124;-80
2022/05/24 06:43:46;;;;;;;5.85;2.58;;;;;;;15.20;100.00;95299.31;5029807;28;20033;-78
2022/05/24 06:46:11;;;;;;;5.38;2.80;;;;;;;15.31;100.00;95288.06;5041065;28;20048;-78
2022/05/24 06:48:40;;;;;;;3.65;2.33;;;;;;;15.52;100.00;95279.75;5026493;28;20025;-77
2022/05/24 06:51:16;;;;;;;6.50;2.17;;;;;;;15.69;100.00;95285.44;5039086;28;20068;-77
2022/05/24 06:53:44;;;;;;;4.40;1.75;;;;;;;15.71;100.00;95288.66;5028996;28;20527;-79
2022/05/24 06:56:10;;;;;;;3.20;1.95;;;;;;;15.68;100.00;95291.72;5033424;28;20046;-77
2022/05/24 06:58:37;;;;;;;3.30;1.63;;;;;;;15.87;100.00;95299.78;5029801;28;20065;-80
2022/05/24 07:03:49;;;;;;;4.78;1.75;;;;;;;16.08;100.00;95296.75;5022644;28;20083;-78
2022/05/24 07:06:17;;;;;;;3.70;1.30;;;;;;;16.16;100.00;95285.88;5022456;28;20105;-80
2022/05/24 07:08:48;;;;;;;2.40;1.10;;;;;;;16.26;100.00;95280.06;5011478;28;20025;-78
2022/05/24 07:11:15;;;;;;;4.70;1.70;;;;;;;16.44;100.00;95284.63;5020146;28;20553;-78
2022/05/24 07:13:41;;;;;;;4.75;1.45;;;;;;;16.52;100.00;95292.28;5026075;28;20048;-78
2022/05/24 07:16:08;;;;;;;3.55;1.52;;;;;;;16.58;100.00;95296.72;5030669;28;20099;-80
2022/05/24 07:18:35;;;;;;;4.35;1.75;;;;;;;16.62;100.00;95300.53;5023706;28;20419;-79
2022/05/24 07:21:03;;;;;;;2.85;1.42;;;;;;;16.82;100.00;95292.41;5002001;28;20360;-78
2022/05/24 07:23:28;;;;;;;3.45;1.52;;;;;;;16.75;100.00;95301.50;5026040;28;20121;-80
2022/05/24 07:26:16;;;;;;;2.40;1.50;;;;;;;16.58;100.00;95302.03;5020159;28;20034;-78
2022/05/24 07:28:42;;;;;;;3.15;1.90;;;;;;;16.62;100.00;95305.84;5020776;28;20593;-78
2022/05/24 07:31:08;;;;;;;4.88;1.90;;;;;;;16.62;100.00;95305.84;5025608;28;20037;-78
2022/05/24 07:33:34;;;;;;;4.10;1.98;;;;;;;16.47;100.00;95311.53;5024438;28;20033;-79
2022/05/24 07:36:00;;;;;;;3.28;2.03;;;;;;;16.41;100.00;95312.41;5024527;28;20128;-79
2022/05/24 07:38:26;;;;;;;3.30;1.60;;;;;;;16.36;100.00;95312.22;5034535;28;20091;-80
2022/05/24 07:46:23;;;;;;;4.18;1.73;;;;;;;16.51;100.00;95311.91;5034737;28;20029;-79
2022/05/24 07:48:49;;;;;;;5.63;1.60;;;;;;;16.56;100.00;95309.38;5028000;28;20032;-77
2022/05/24 07:51:14;;;;;;;2.67;1.58;;;;;;;16.78;100.00;95315.13;5015096;28;20034;-79
2022/05/24 07:53:41;;;;;;;4.38;1.52;;;;;;;16.88;100.00;95317.28;5025052;28;20048;-79
2022/05/24 07:56:07;;;;;;;3.05;1.67;;;;;;;16.92;100.00;95315.78;5040401;28;20445;-79
2022/05/24 07:58:32;;;;;;;3.78;1.70;;;;;;;16.92;100.00;95316.59;5036282;28;20048;-79
2022/05/24 08:00:59;;;;;;;5.32;1.63;;;;;;;16.71;100.00;95312.50;5025341;28;20475;-79
2022/05/24 08:03:26;;;;;;;5.30;1.63;;;;;;;16.89;100.00;95309.06;5023010;28;20065;-79
2022/05/24 08:05:52;;;;;;;2.85;1.20;;;;;;;16.66;100.00;95317.66;5013148;28;20026;-78
2022/05/24 08:08:17;;;;;;;2.83;1.30;;;;;;;16.78;100.00;95370.09;5013321;28;20391;-79
2022/05/24 08:10:44;;;;;;;6.35;0.50;;;;;;;14.74;100.00;95400.84;5040338;28;20104;-77
2022/05/24 08:13:14;;;;;;;6.25;1.80;;;;;;;14.09;100.00;95400.63;5024017;28;20032;-78
2022/05/24 08:15:40;;;;;;;1.83;0.30;;;;;;;12.85;100.00;95401.53;5023479;28;20069;-80
2022/05/24 08:18:07;;;;;;;1.48;0.50;;;;;;;12.70;100.00;95427.19;5029665;28;20042;-80
2022/05/24 08:20:33;;;;;;;2.80;0.63;;;;;;;12.44;100.00;95446.25;5035179;28;20466;-80
2022/05/24 08:23:00;;;;;;;5.00;1.70;;;;;;;12.46;100.00;95446.91;5024545;28;20034;-80
2022/05/24 08:25:28;;;;;;;3.73;1.30;;;;;;;12.26;100.00;95449.34;5031414;28;20103;-81
2022/05/24 08:27:55;;;;;;;2.07;0.63;;;;;;;12.36;100.00;95462.22;5004544;28;20112;-80
2022/05/24 08:30:21;;;;;;;0.90;0.30;;;;;;;12.40;100.00;95472.19;5043981;28;20045;-79
2022/05/24 08:32:48;;;;;;;0.90;0.50;;;;;;;12.35;100.00;95493.06;5027241;28;20014;-78
2022/05/24 08:35:16;;;;;;;5.13;0.47;;;;;;;12.60;100.00;95503.22;5050180;28;20034;-80
2022/05/24 08:37:43;;;;;;;3.07;0.40;;;;;;;12.62;100.00;95498.56;5047734;28;20037;-79
2022/05/24 08:40:12;;;;;;;2.07;0.30;;;;;;;12.83;100.00;95505.63;5019549;28;20045;-80
2022/05/24 08:42:47;;;;;;;1.03;0.40;;;;;;;12.78;100.00;95516.78;5033317;28;20025;-81
2022/05/24 08:48:23;;;;;;;47.50;6.53;;;;;;;13.01;100.00;95521.84;5032235;28;20044;-81
2022/05/24 08:51:02;;;;;;;2.63;0.97;;;;;;;12.83;100.00;95511.72;5024109;28;20366;-82
2022/05/24 08:53:46;;;;;;;0.50;0.33;;;;;;;12.67;100.00;95523.34;5049883;28;20042;-79
2022/05/24 08:56:23;;;;;;;1.43;0.40;;;;;;;12.67;100.00;95522.53;5046921;28;20098;-80
2022/05/24 08:58:54;;;;;;;1.30;0.50;;;;;;;12.80;100.00;95516.56;5036236;28;20026;-77
2022/05/24 09:01:27;;;;;;;1.40;0.90;;;;;;;12.81;100.00;95512.91;5047577;28;20030;-78
2022/05/24 09:03:52;;;;;;;1.83;0.40;;;;;;;12.82;100.00;95511.94;5007224;28;20050;-80
2022/05/24 09:06:38;;;;;;;10.60;6.73;;;;;;;12.76;100.00;95502.94;5034134;28;20529;-79
2022/05/24 09:09:41;;;;;;;1.63;0.80;;;;;;;13.10;100.00;95506.66;5027479;28;20034;-80
2022/05/24 09:12:22;;;;;;;2.47;0.50;;;;;;;13.02;100.00;95498.91;5038572;28;20010;-80
2022/05/24 09:15:09;;;;;;;2.20;0.40;;;;;;;13.12;100.00;95516.03;5019818;28;20040;-79
2022/05/24 09:17:56;;;;;;;0.90;0.50;;;;;;;13.14;100.00;95518.44;5015282;28;20033;-80
2022/05/24 09:20:38;;;;;;;1.13;0.40;;;;;;;13.35;100.00;95518.44;5024392;28;20101;-79
2022/05/24 09:23:22;;;;;;;4.07;0.50;;;;;;;13.54;100.00;95516.91;5032683;28;20083;-78
2022/05/24 09:25:53;;;;;;;1.60;0.63;;;;;;;14.05;100.00;95521.00;5035069;28;20041;-78
2022/05/24 09:28:43;;;;;;;1.10;0.50;;;;;;;14.39;100.00;95512.97;5017003;28;20612;-79
2022/05/24 09:31:35;;;;;;;2.10;0.50;;;;;;;14.50;100.00;95524.81;5024670;28;20038;-79
2022/05/24 09:34:31;;;;;;;2.90;1.07;;;;;;;14.76;100.00;95526.69;5025775;28;20029;-78
2022/05/24 09:37:05;;;;;;;1.38;0.40;;;;;;;14.80;100.00;95532.38;5026685;28;20077;-79
2022/05/24 09:39:37;;;;;;;3.23;0.70;;;;;;;14.53;100.00;95523.59;5024334;28;20033;-78
2022/05/24 09:42:09;;;;;;;1.55;0.60;;;;;;;14.73;100.00;95526.28;5031425;28;20045;-79
2022/05/24 09:44:57;;;;;;;2.63;0.93;;;;;;;14.74;100.00;95515.47;5010917;28;20025;-80
2022/05/24 09:47:30;;;;;;;1.08;0.45;;;;;;;14.79;100.00;95499.81;5015417;28;20038;-79
2022/05/24 09:50:16;;;;;;;;;;;;;;;15.07;100.00;95519.97;5019590;28;20041;-77
2022/05/24 09:53:02;;;;;;;0.75;0.38;;;;;;;15.27;100.00;95523.41;5052662;28;19917;-77
2022/05/24 09:55:50;;;;;;;15.35;1.40;;;;;;;14.92;100.00;95524.63;5022101;28;20061;-80
2022/05/24 09:58:34;;;;;;;1.38;0.50;;;;;;;15.30;100.00;95538.91;5024288;28;20426;-78
2022/05/24 10:01:27;;;;;;;4.85;2.30;;;;;;;15.09;100.00;95533.84;5039213;28;20065;-78
2022/05/24 10:03:53;;;;;;;4.65;2.45;;;;;;;15.08;100.00;95535.63;5008859;28;20455;-80
2022/05/24 10:06:32;;;;;;;2.33;1.25;;;;;;;14.99;100.00;95523.66;5005651;28;20105;-80
2022/05/24 10:09:09;;;;;;;4.03;0.52;;;;;;;15.15;100.00;95537.47;5026590;28;20851;-77
2022/05/24 10:11:45;;;;;;;0.40;0.28;;;;;;;15.08;100.00;95540.13;5007121;28;20060;-78
2022/05/24 10:14:23;;;;;;;0.93;0.40;;;;;;;15.01;100.00;95544.59;5023123;28;20071;-77
2022/05/24 10:17:21;;;;;;;0.30;0.23;;;;;;;15.46;100.00;95540.31;5024888;28;20045;-77
2022/05/24 10:20:10;;;;;;;0.80;0.30;;;;;;;15.47;100.00;95538.47;5041560;28;20041;-77
2022/05/24 10:22:48;;;;;;;1.42;0.40;;;;;;;15.57;100.00;95554.75;5036290;28;20037;-77
2022/05/24 10:25:53;;;;;;;1.02;0.40;;;;;;;15.93;100.00;95556.13;5024898;28;20025;-77
2022/05/24 10:28:43;;;;;;;0.90;0.32;;;;;;;16.11;100.00;95550.94;5040584;28;20045;-77
2022/05/24 10:31:16;;;;;;;3.65;0.40;;;;;;;16.45;97.75;95543.66;5021611;28;20064;-78
2022/05/24 10:39:41;;;;;;;1.90;0.50;;;;;;;16.95;98.08;95551.72;5048612;28;20045;-78
2022/05/24 10:42:37;;;;;;;2.08;0.50;;;;;;;16.73;97.92;95540.59;5011526;28;20042;-80
2022/05/24 10:45:10;;;;;;;1.15;0.30;;;;;;;17.07;91.35;95534.09;5031731;28;20491;-77
2022/05/24 10:47:42;;;;;;;0.45;0.32;;;;;;;17.79;89.42;95528.31;5036473;28;20036;-77
2022/05/24 10:50:11;;;;;;;1.80;0.50;;;;;;;17.25;92.29;95525.34;5022567;28;20071;-77
2022/05/24 10:53:02;;;;;;;3.40;0.57;;;;;;;18.25;83.48;95535.75;5034095;28;20493;-77
2022/05/24 10:55:41;;;;;;;1.30;0.40;;;;;;;18.70;81.44;95524.69;5025870;28;20030;-77
2022/05/24 10:58:11;;;;;;;3.72;0.38;;;;;;;19.28;77.92;95518.69;5025741;28;20033;-77
2022/05/24 11:00:43;;;;;;;1.05;0.47;;;;;;;19.82;74.73;95513.25;5026932;28;20029;-78
2022/05/24 11:03:29;;;;;;;1.77;0.50;;;;;;;19.28;69.97;95513.34;5023738;28;20674;-78
2022/05/24 11:06:11;;;;;;;0.77;0.43;;;;;;;18.75;77.07;95522.19;5011929;28;20097;-77
2022/05/24 11:08:54;;;;;;;2.10;0.68;;;;;;;17.90;77.67;95512.41;5020817;28;20499;-77
2022/05/24 11:11:30;;;;;;;3.03;0.95;;;;;;;17.90;81.74;95517.72;5007890;28;20029;-77
2022/05/24 11:13:56;;;;;;;3.63;0.68;;;;;;;18.43;78.46;95512.78;5021629;28;20034;-76
2022/05/24 11:16:33;;;;;;;2.67;0.68;;;;;;;18.53;79.49;95526.38;5018730;28;20053;-77
2022/05/24 11:18:59;;;;;;;0.95;0.63;;;;;;;18.21;73.88;95539.06;5020996;28;20044;-78
2022/05/24 11:21:33;;;;;;;1.85;0.40;;;;;;;17.94;74.47;95539.41;5027123;28;20021;-77
2022/05/24 11:24:14;;;;;;;3.28;0.43;;;;;;;18.39;73.26;95528.41;5013693;28;20029;-77
2022/05/24 11:26:52;;;;;;;2.10;0.32;;;;;;;18.14;70.91;95534.66;5008448;28;20073;-77
2022/05/24 11:29:31;;;;;;;1.55;0.40;;;;;;;18.64;66.38;95538.09;5005284;28;20041;-77
2022/05/24 11:32:06;;;;;;;1.95;0.50;;;;;;;18.48;65.55;95534.22;5029403;28;20028;-77
2022/05/24 11:34:52;;;;;;;3.20;0.30;;;;;;;18.66;64.36;95536.84;5009456;28;20574;-78
2022/05/24 11:37:33;;;;;;;2.65;0.60;;;;;;;18.88;63.56;95544.31;5023632;28;20044;-77
2022/05/24 11:40:21;;;;;;;1.42;0.30;;;;;;;18.83;63.19;95542.34;5006788;28;20105;-78
2022/05/24 11:42:47;;;;;;;1.42;0.40;;;;;;;19.59;62.83;95534.56;5024996;28;20070;-77
2022/05/24 11:45:28;;;;;;;2.30;0.70;;;;;;;19.64;61.31;95537.38;5008145;28;20026;-77
2022/05/24 11:47:54;;;;;;;1.48;0.60;;;;;;;20.30;57.59;95528.06;5015523;28;20033;-77
2022/05/24 11:50:38;;;;;;;2.25;0.80;;;;;;;20.00;58.20;95529.09;5025023;28;20034;-80
2022/05/24 11:53:05;;;;;;;8.57;5.63;;;;;;;19.92;58.94;95533.97;5030898;28;20044;-78
2022/05/24 11:55:48;;;;;;;6.25;2.72;;;;;;;19.51;57.57;95531.19;5033243;28;20029;-78
2022/05/24 11:58:20;;;;;;;3.10;1.80;;;;;;;19.79;56.36;95537.72;5033884;28;20041;-78
2022/05/24 12:01:07;;;;;;;0.65;0.40;;;;;;;19.22;55.59;95532.94;5031571;28;20041;-78
2022/05/24 12:10:20;;;;;;;3.50;0.40;;;;;;;19.49;52.68;95538.63;5039346;28;20064;-77
2022/05/24 12:12:51;;;;;;;0.73;0.30;;;;;;;19.42;52.63;95537.94;5022527;28;20032;-78
2022/05/24 12:15:21;;;;;;;0.82;0.50;;;;;;;19.50;54.73;95542.09;5019111;28;20053;-77
2022/05/24 12:17:58;;;;;;;2.42;0.40;;;;;;;20.59;51.73;95541.44;5027974;28;20037;-78
2022/05/24 12:20:32;;;;;;;1.40;0.47;;;;;;;21.02;50.52;95540.06;5029775;28;20025;-78
2022/05/24 12:23:04;;;;;;;1.65;0.60;;;;;;;21.61;49.16;95530.63;5033920;28;20124;-78
2022/05/24 12:25:50;;;;;;;0.98;0.30;;;;;;;22.12;48.81;95527.81;5035600;28;20026;-77
2022/05/24 12:28:16;;;;;;;0.68;0.32;;;;;;;21.17;49.44;95535.00;5013131;28;20033;-78